This is the latest recevied weather packets stored in our database for station/object GW1476. If no packets are shown the sender has not sent any weather packets the latest 10 day(s).
| Time | Temp. | Humidity | Pressure | Rain* | Wind** | Luminosity | Snow |
|---|---|---|---|---|---|---|---|
| 1777330491 | 27.22° C | 45% | 1016.5 hPa | 0 mm | - | - | - |
| 1777326861 | 28.33° C | 45% | 1016.9 hPa | 0 mm | - | - | - |
| 1777326171 | 29.44° C | 39% | 1016.9 hPa | 0 mm | - | - | - |
| 1777322919 | 30° C | 37% | 1017.2 hPa | 0 mm | - | - | - |
| 1777320052 | 30° C | 41% | 1017.9 hPa | 0 mm | - | - | - |
| 1777318247 | 30° C | 38% | 1018.2 hPa | 0 mm | - | - | - |
| 1777314287 | 28.89° C | 44% | 1019.3 hPa | 0 mm | - | - | - |
| 1777313213 | 28.89° C | 45% | 1019.6 hPa | 0 mm | - | - | - |
| 1777307091 | 26.11° C | 56% | 1020.9 hPa | 0 mm | - | - | - |
| 1777305250 | 24.44° C | 57% | 1021.3 hPa | 0 mm | - | - | - |
| 1777303133 | 23.33° C | 60% | 1021.6 hPa | 0 mm | - | - | - |
| 1777302731 | 23.33° C | 59% | 1021.6 hPa | 0 mm | - | - | - |
| 1777301295 | 21.11° C | 67% | 1021.6 hPa | 0 mm | - | - | - |
| 1777300948 | 21.11° C | 67% | 1021.6 hPa | 0 mm | - | - | - |
| 1777300590 | 20.56° C | 68% | 1021.6 hPa | 0 mm | - | - | - |
| 1777297734 | 17.78° C | 74% | 1022 hPa | 0 mm | - | - | - |
| 1777297359 | 17.78° C | 74% | 1022 hPa | 0 mm | - | - | - |
| 1777296286 | 16.67° C | 76% | 1022.3 hPa | 0 mm | - | - | - |
| 1777295563 | 16.11° C | 78% | 1022 hPa | 0 mm | - | - | - |
| 1777291238 | 10.56° C | 99% | 1022.3 hPa | 0 mm | - | - | - |
| 1777289802 | 8.33° C | 99% | 1022.6 hPa | 0 mm | - | - | - |
| 1777285834 | 7.78° C | 99% | 1022 hPa | 0 mm | - | - | - |
| 1777283679 | 8.33° C | 99% | 1021.3 hPa | 0 mm | - | - | - |
| 1777278630 | 8.89° C | 99% | 1020.3 hPa | 0 mm | - | - | - |
| 1777276462 | 8.89° C | 99% | 1019.9 hPa | 0 mm | - | - | - |
* Rain since midnight (hover to see other rain measurements)
** Current wind speed in m/s (hover to see current wind gust speed)